NCAR-RAP Real-Time Weather Data

Output produced by METARs form (23 January 2018  15:48 UTC)
found at http://weather.rap.ucar.edu/surface/
 
RJSA 231200Z 25019G32KT 0600 R24/1000VP1800D SHSN FEW001 SCT003 BKN005 M05/M07 Q1003
RJSA 231100Z 26012KT 9999 -SHSN FEW005 SCT020 BKN030 M03/M08 Q1002
RJSA 231000Z 27014KT 1600 R24/P1800N -SHSN FEW003 SCT005 BKN010 M03/M06 Q1001
RJSA 230947Z 26016G27KT 5000 -SHSN FEW005 SCT010 BKN015 M03/M06 Q1001 RMK 1ST005 4ST010 6CU015 A2957
RJSA 230941Z 26016G27KT 2000 -SHSN FEW005 SCT010 BKN015 M03/M07 Q1001 RMK 1ST005 4ST010 6CU015 A2956
RJSA 230900Z 27011KT 9999 -SHSN FEW010 SCT020 BKN030 M02/M06 Q1000
RJSA 230800Z 26012G24KT 9999 -SHSN FEW010 SCT015 BKN030 M02/M04 Q0999
RJSA 230747Z 27016G27KT 230V300 4000 -SHSN FEW003 SCT007 BKN010 M02/M04 Q0998 RMK 1ST003 3ST007 6ST010 A2949
RJSA 230735Z 26015G26KT 240V300 6000 -SHSN FEW003 SCT007 BKN020 M02/M03 Q0998 RMK 1ST003 3ST007 6CU020 A2949
RJSA 230732Z 26016G26KT 4000 R24/1100VP1800U -SHSN FEW002 SCT005 BKN010 M02/M03 Q0998 RMK 1ST002 3ST005 6ST010 A2948
RJSA 230730Z 26017KT 1600 R24/1000VP1800U -SHSN FEW002 SCT005 BKN010 M02/M03 Q0998 RMK 1ST002 3ST005 6ST010 A2948
RJSA 230725Z 26018G30KT 1000 R24/0900VP1800U -SHSN FEW001 SCT003 BKN007 M02/M03 Q0998 RMK 1ST001 4ST003 6ST007 A2948
RJSA 230722Z 26019G30KT 0600 R24/0900VP1800D SHSN SCT001 BKN002 M02/M03 Q0998 RMK 3ST001 7ST002 A2948 P/RR
RJSA 230719Z 26018G30KT 0500 R24/1000VP1800D SHSN VV003 M01/M03 Q0998 RMK A2948 P/RR
RJSA 230717Z 26016KT 0700 R24/1300VP1800U SHSN FEW001 SCT003 BKN004 M01/M02 Q0998 RMK 1ST001 3ST003 5ST004 A2947 P/RR
RJSA 230711Z 26016G26KT 1000 R24/1800D -SHSN FEW002 SCT004 BKN007 M01/M02 Q0997 RMK 1ST002 3ST004 6ST007 A2946 P/RR
RJSA 230704Z 25020KT 0900 R24/P1800N SHSN FEW001 SCT003 BKN005 M01/M02 Q0997 RMK 1ST001 3ST003 6ST005 A2946 P/RR
RJSA 230703Z 25020KT 1200 R24/P1800N -SHSN FEW002 SCT004 BKN006 M01/M02 Q0997 RMK 1ST002 3ST004 6ST006 A2946 P/RR
RJSA 230700Z 24021KT 2000 -SHSN FEW002 SCT005 BKN008 M01/M03 Q0997
RJSA 230648Z 26020G31KT 1200 R24/1800N -SHSN FEW002 SCT003 BKN006 M01/M02 Q0997 RMK 1ST002 3ST003 6ST006 A2944 P/RR
RJSA 230645Z 26021G31KT 1600 -SHSN FEW003 SCT005 BKN009 M01/M02 Q0996 RMK 1ST003 3ST005 6ST009 A2944 P/RR
RJSA 230641Z 26020G30KT 4000 -SHSN FEW003 SCT005 BKN010 M01/M02 Q0996 RMK 1ST003 3ST005 6ST010 A2943 P/RR
RJSA 230636Z 26017G28KT 1200 R24/P1800N -SHSN FEW003 SCT005 BKN009 M00/M02 Q0996 RMK 1ST003 4ST005 7ST009 A2943 P/RR
RJSA 230635Z 26016G28KT 3000 -SHSN FEW003 SCT005 BKN010 M00/M02 Q0996 RMK 1ST003 3ST005 6ST010 A2942 P/RR
RJSA 230615Z 25017G28KT 5000 -SHSN FEW003 SCT005 BKN010 01/M01 Q0995 RMK 1ST003 3ST005 6ST010 A2940 P/RR
RJSA 230612Z 24015KT 210V280 4500 -SHSN FEW003 SCT005 BKN010 01/M01 Q0995 RMK 1ST003 3ST005 6ST010 A2940 P/RR
RJSA 230600Z 23013KT 9999 -SHSN FEW005 SCT015 BKN025 01/M01 Q0994
RJSA 230530Z 22018KT 5000 R24/0900VP1800U -SHSN FEW002 SCT005 BKN010 01/M00 Q0993 RMK 1ST002 4ST005 6ST010 A2934 P/RR
RJSA 230525Z 22019KT 1200 R24/0800VP1800U -SHSN FEW001 SCT003 BKN005 01/M01 Q0993 RMK 1ST001 4ST003 6ST005 A2934 P/RR
RJSA 230518Z 20015KT 160V230 0800 R24/0900VP1800D SHSN FEW001 SCT002 BKN003 01/M01 Q0993 RMK 1ST001 3ST002 6ST003 A2933
RJSA 230515Z 20013G23KT 0900 R24/1000VP1800D SHSN FEW001 SCT003 BKN004 01/M00 Q0993 RMK 1ST001 3ST003 6ST004 A2933
RJSA 230509Z 19012KT 1200 R24/P1800N -SHSN FEW002 BKN005 BKN010 FEW015CB 01/M00 Q0992 RMK 1ST002 5ST005 7ST010 1CB015 A2932 CB 10KM SE MOV NE
RJSA 230500Z 17010KT 150V210 2000 R24/0900VP1800U -SHSN FEW002 BKN005 BKN010 FEW015CB 01/M00 Q0992
RJSA 230443Z 19010KT 0800 R24/0900VP1800D SHSN FEW002 BKN005 BKN010 01/M00 Q0992 RMK 1ST002 5ST005 7ST010 A2932
RJSA 230437Z 19011KT 1200 R24/1600VP1800D -SHSN FEW002 BKN006 BKN015 01/M00 Q0992 RMK 1ST002 5ST006 7CU015 A2932
RJSA 230418Z 20008KT 170V230 1500 R24/0900VP1800U -SHSN FEW002 SCT006 BKN010 01/M00 Q0992 RMK 1ST002 4ST006 7ST010 A2931
RJSA 230416Z 21008KT 170V250 1400 R24/0800VP1800U -SHSN FEW002 SCT006 BKN010 01/M00 Q0992 RMK 1ST002 4ST006 7ST010 A2931
RJSA 230400Z 26010KT 1000 R24/0800V1500D -SHSN FEW001 BKN003 BKN007 00/M01 Q0992
RJSA 230348Z 22010KT 190V250 1000 R24/0800V1100N -SHSN FEW001 BKN003 BKN005 01/M00 Q0992 RMK 1ST001 5ST003 7ST005 A2932
RJSA 230329Z 15015G29KT 090V180 0500 R24/0750V1000N SHSN FEW001 BKN003 BKN005 01/M01 Q0992 RMK 1ST001 5ST003 7ST005 A2930
RJSA 230326Z 15016G29KT 090V180 0500 R24/0800V1700D SHSN FEW001 BKN003 BKN005 01/M01 Q0992 RMK 1ST001 5ST003 7ST005 A2930
RJSA 230321Z 15016G29KT 130V190 0800 R24/0900VP1800D SHSN FEW001 SCT003 BKN005 01/M01 Q0992 RMK 1ST001 4ST003 7ST005 A2930
RJSA 230318Z 16013G24KT 120V200 0800 R24/1100VP1800D SHSN FEW001 SCT003 BKN005 01/M02 Q0992 RMK 1ST001 4ST003 7ST005 A2930
RJSA 230314Z VRB10G23KT 1000 R24/P1800N -SHSN FEW001 SCT005 BKN008 02/M02 Q0992 RMK 1ST001 4ST005 7ST008 A2931
RJSA 230300Z 17010KT 130V210 2000 -SHSN FEW001 SCT005 BKN010 03/M02 Q0992
RJSA 230200Z 14009KT 100V190 9999 FEW010 SCT030 BKN060 04/M04 Q0994
RJSA 230100Z 16008KT 110V210 9999 FEW010 SCT030 BKN050 04/M04 Q0996
RJSA 230000Z 14010KT 100V170 9999 FEW010 SCT030 BKN060 03/M04 Q0998
RJSA 222300Z 11005KT 9999 FEW020 SCT040 BKN080 M02/M05 Q0999
RJSA 222220Z 12014KT 090V150 9999 FEW020 SCT040 BKN080 02/M04 Q1000 RMK 1CU020 3CU040 5AC080 A2953
RJSA 222200Z VRB03KT 9999 FEW020 SCT040 BKN080 M02/M05 Q1000
RJSA 221200Z 00000KT 9999 FEW030 SCT080 BKN100 M06/M10 Q1012
RJSA 221100Z VRB01KT 9999 FEW030 SCT080 BKN100 M07/M09 Q1013
RJSA 221000Z VRB01KT 9999 FEW030 SCT080 BKN100 M06/M09 Q1014
RJSA 220900Z VRB02KT 9999 FEW030 SCT080 BKN100 M06/M09 Q1015
RJSA 220800Z 04005KT 9999 FEW030 SCT080 BKN100 M04/M10 Q1015
RJSA 220700Z 02003KT 9999 FEW030 SCT080 BKN090 M05/M10 Q1015
RJSA 220600Z 04004KT 010V070 9999 FEW030 SCT050 BKN060 M04/M11 Q1016
RJSA 220500Z VRB02KT 9999 FEW030 SCT090 BKN110 M04/M11 Q1017
RJSA 220400Z VRB02KT 9999 FEW030 BKN120 BKN140 M04/M12 Q1018
RJSA 220300Z 20003KT 130V260 9999 FEW020 BKN035 BKN/// M04/M12 Q1019
RJSA 220200Z 18007KT 150V220 9999 FEW020 SCT030 BKN/// M04/M12 Q1021
RJSA 220100Z 20007KT 9999 FEW020 SCT035 BKN/// M05/M12 Q1021
RJSA 220000Z 22007KT 9999 FEW020 SCT035 BKN/// M06/M12 Q1021
RJSA 212300Z 19007KT 9999 FEW020 BKN035 M07/M13 Q1021
RJSA 212200Z 21007KT 9999 FEW020 SCT030 BKN040 M08/M13 Q1021
RJSA 211246Z 25015G25KT 0600 R24/0550V1400U SHSN FEW002 SCT003 BKN009 M07/M08 Q1019 RMK 2ST002 4ST003 6ST009 A3009
RJSA 211235Z 25015KT 0400 R24/0700V1000N SHSN VV002 M07/M08 Q1019 RMK A3009
RJSA 211234Z 25015KT 0400 R24/0700V1100D SHSN VV002 M07/M08 Q1019 RMK A3009
RJSA 211231Z 25015KT 0400 R24/0700V1700D SHSN VV002 M07/M08 Q1018 RMK A3008
RJSA 211225Z 25015KT 0500 R24/1000VP1800D SHSN VV002 M07/M09 Q1018 RMK A3008
RJSA 211222Z 24014KT 0600 R24/0900VP1800U SHSN FEW004 SCT007 BKN009 M07/M09 Q1018 RMK 1ST004 3ST007 6ST009 A3008
RJSA 211217Z 24013KT 0900 R24/0800V1100U SHSN FEW002 SCT007 BKN009 M07/M08 Q1018 RMK 1ST002 3ST007 6ST009 A3008
RJSA 211214Z 25013KT 0500 R24/0700V1000U SHSN VV002 M07/M08 Q1018 RMK A3008
RJSA 211211Z 26012KT 0400 R24/0700VP1800D SHSN VV002 M07/M09 Q1018 RMK A3008
RJSA 211207Z 26012KT 230V300 0500 R24/0700VP1800D SHSN VV002 M07/M09 Q1018 RMK A3008
RJSA 211204Z 26011KT 230V300 0500 R24/0900VP1800D SHSN VV002 M07/M09 Q1018 RMK A3008
RJSA 211200Z 26011KT 230V300 1000 R24/P1800N -SHSN FEW003 SCT009 BKN015 M06/M09 Q1018
RJSA 211149Z 26010KT 4000 -SHSN FEW010 SCT020 BKN040 M06/M10 Q1018 RMK 1ST010 3CU020 6CU040 A3007
RJSA 211100Z 25013KT 9999 -SHSN FEW010 SCT030 BKN050 M06/M10 Q1017
RJSA 211000Z 25014KT 9999 -SHSN FEW010 SCT030 BKN050 M06/M10 Q1017
RJSA 210914Z 23014KT 6000 -SHSN FEW005 SCT015 BKN030 M06/M07 Q1017 RMK 1ST005 3CU015 6CU030 A3005
RJSA 210909Z 24014KT 3000 -SHSN FEW005 SCT008 BKN015 M06/M07 Q1017 RMK 1ST005 3ST008 6CU015 A3005
RJSA 210900Z 23015KT 2000 -SHSN FEW005 SCT010 BKN020 M06/M07 Q1017
RJSA 210851Z 23014KT 1000 R24/P1800N -SHSN FEW009 SCT015 BKN025 M06/M08 Q1017 RMK 1ST009 3CU015 6CU025 A3005
RJSA 210843Z 23013KT 2500 -SHSN FEW010 SCT015 BKN025 M06/M08 Q1017 RMK 1ST010 3CU015 6CU025 A3004
RJSA 210835Z 22012KT 4000 -SHSN FEW010 SCT020 BKN030 M05/M09 Q1017 RMK 1ST010 3CU020 6CU030 A3004
RJSA 210800Z 24011KT 9999 -SHSN FEW010 SCT030 BKN040 M05/M10 Q1016
RJSA 210700Z 26011KT 230V290 8000 -SHSN FEW010 SCT030 BKN040 M04/M10 Q1016
RJSA 210626Z 27015G27KT 250V320 6000 -SHSN FEW010 SCT030 BKN040 M04/M08 Q1016 RMK 1ST010 3CU030 6CU040 A3000
RJSA 210607Z 26014KT 230V290 6000 -SHSN FEW005 SCT030 BKN040 M04/M07 Q1015 RMK 1ST005 3CU030 6CU040 A2998
RJSA 210600Z 26013G23KT 220V290 4500 -SHSN FEW005 SCT015 BKN030 M04/M07 Q1015
RJSA 210547Z 26011G21KT 230V310 1200 R24/P1800N -SHSN FEW003 SCT009 BKN020 M04/M06 Q1015 RMK 1ST003 3ST009 6CU020 A2998
RJSA 210538Z 26012G22KT 1500 R24/P1800N -SHSN FEW003 SCT010 BKN020 M04/M06 Q1015 RMK 1ST003 3ST010 6CU020 A2997
RJSA 210529Z 27013G24KT 240V300 1200 R24/1300VP1800U -SHSN FEW003 SCT010 BKN020 M04/M06 Q1014 RMK 1ST003 3ST010 6CU020 A2997
RJSA 210523Z 28014KT 250V310 0800 R24/0900VP1800D SHSN FEW003 SCT009 BKN015 M04/M06 Q1014 RMK 1ST003 3ST009 6CU015 A2997
RJSA 210518Z 28014KT 260V320 0600 R24/0900VP1800D SHSN FEW003 SCT009 BKN015 M04/M06 Q1014 RMK 1ST003 3ST009 6CU015 A2997
RJSA 210516Z 28015KT 260V320 0800 R24/1200VP1800D SHSN FEW003 SCT009 BKN015 M03/M06 Q1014 RMK 1ST003 3ST009 6CU015 A2996
RJSA 210513Z 28014KT 260V320 1200 R24/P1800N -SHSN FEW003 SCT009 BKN020 M03/M06 Q1014 RMK 1ST003 3ST009 6CU020 A2996
RJSA 210508Z 27013KT 240V300 2000 -SHSN FEW005 SCT010 BKN020 M03/M06 Q1014 RMK 1ST005 3ST010 6CU020 A2996
RJSA 210506Z 26012G22KT 240V300 3000 -SHSN FEW005 SCT010 BKN020 M03/M06 Q1014 RMK 1ST005 3ST010 6CU020 A2996
RJSA 210500Z 25013KT 5000 -SHSN FEW005 SCT015 BKN020 M03/M06 Q1014
RJSA 210443Z 26010KT 1200 R24/P1800N -SHSN FEW003 SCT005 BKN007 M03/M05 Q1014 RMK 1ST003 4ST005 6ST007 A2995
RJSA 210440Z 26010KT 3000 R24/1400VP1800U -SHSN FEW005 SCT010 BKN015 M03/M05 Q1014 RMK 1ST005 4ST010 6CU015 A2995
RJSA 210438Z 26011KT 240V300 3000 R24/1000VP1800U -SHSN FEW005 SCT010 BKN020 M03/M05 Q1014 RMK 1ST005 4ST010 6CU020 A2995
RJSA 210433Z 27013KT 250V310 1200 R24/1000VP1800D -SHSN FEW003 SCT008 BKN010 M03/M05 Q1014 RMK 1ST003 4ST008 6ST010 A2995
RJSA 210430Z 27013KT 250V310 0500 R24/1000VP1800D SHSN VV003 M03/M05 Q1014 RMK A2995
RJSA 210428Z 27012KT 250V310 0500 R24/1100VP1800D SHSN VV003 M03/M05 Q1014 RMK A2995
RJSA 210424Z 27012KT 0500 R24/1200VP1800U SHSN FEW001 SCT003 BKN005 M03/M05 Q1014 RMK 1ST001 4ST003 6ST005 A2995
RJSA 210412Z 28013KT 240V310 1200 R24/P1800N -SHSN FEW003 SCT005 BKN008 M03/M05 Q1013 RMK 1ST003 4ST005 6ST008 A2994
RJSA 210404Z 27010G20KT 240V310 2500 -SHSN FEW005 SCT010 BKN015 M02/M06 Q1013 RMK 1ST005 3ST010 6CU015 A2993
RJSA 210400Z 27009KT 230V310 7000 -SHSN FEW005 SCT015 BKN020 M02/M06 Q1013